createdAt,value
2022-08-11T00:04:23.708Z,17.78
2022-08-11T00:09:24.196Z,17.71
2022-08-11T00:14:37.386Z,17.76
2022-08-11T00:20:11.711Z,17.81
2022-08-11T00:25:01.581Z,17.70
2022-08-11T00:29:59.012Z,17.71
2022-08-11T00:35:55.613Z,17.54
2022-08-11T00:40:32.548Z,17.54
2022-08-11T00:46:09.114Z,17.45
2022-08-11T00:51:57.600Z,17.37
2022-08-11T00:57:37.655Z,17.42
2022-08-11T01:03:07.065Z,17.38
2022-08-11T01:08:24.359Z,17.43
2022-08-11T01:13:58.804Z,17.30
2022-08-11T01:20:45.021Z,17.23
2022-08-11T01:25:21.782Z,17.31
2022-08-11T01:30:59.969Z,17.38
2022-08-11T01:35:59.479Z,17.28
2022-08-11T01:41:01.664Z,17.24
2022-08-11T01:46:10.874Z,17.21
2022-08-11T01:51:34.781Z,17.24
2022-08-11T01:56:49.545Z,17.15
2022-08-11T02:02:10.715Z,17.14
2022-08-11T02:07:28.703Z,17.10
2022-08-11T02:12:27.613Z,17.11
2022-08-11T02:17:57.780Z,17.18
2022-08-11T02:23:59.615Z,17.05
2022-08-11T02:29:18.711Z,16.95
2022-08-11T02:34:59.290Z,16.87
2022-08-11T02:39:59.486Z,16.88
2022-08-11T02:45:14.446Z,16.88
2022-08-11T02:50:26.514Z,16.76
2022-08-11T02:55:48.673Z,16.70
2022-08-11T03:01:06.492Z,16.61
2022-08-11T03:06:05.964Z,16.58
2022-08-11T03:11:50.231Z,16.47
2022-08-11T03:17:00.399Z,16.31
2022-08-11T03:22:17.079Z,16.22
2022-08-11T03:27:32.065Z,16.24
2022-08-11T03:32:37.604Z,16.30
2022-08-11T03:37:56.875Z,16.30
2022-08-11T03:43:03.565Z,16.19
2022-08-11T03:48:41.216Z,16.15
2022-08-11T03:54:01.333Z,16.17
2022-08-11T03:59:31.046Z,16.04
2022-08-11T04:05:12.598Z,15.96
2022-08-11T04:10:15.218Z,15.91
2022-08-11T04:16:00.712Z,15.92
2022-08-11T04:21:29.216Z,15.91
2022-08-11T04:26:56.521Z,15.99
2022-08-11T04:32:36.893Z,15.98
2022-08-11T04:38:16.315Z,16.00
2022-08-11T04:44:02.618Z,16.07
2022-08-11T04:49:34.181Z,16.22
2022-08-11T04:55:04.288Z,16.31
2022-08-11T05:00:31.282Z,16.39
2022-08-11T05:05:56.303Z,16.47
2022-08-11T05:11:07.657Z,16.58
2022-08-11T05:16:30.447Z,16.63
2022-08-11T05:21:45.878Z,16.77
2022-08-11T05:27:12.806Z,16.94
2022-08-11T05:32:31.880Z,17.15
2022-08-11T05:37:34.425Z,17.34
2022-08-11T05:42:52.381Z,17.64
2022-08-11T05:48:08.397Z,17.99
2022-08-11T05:53:29.540Z,18.29
2022-08-11T05:58:42.566Z,18.72
2022-08-11T06:04:04.704Z,19.07
2022-08-11T06:09:02.206Z,19.40
2022-08-11T06:14:02.315Z,19.75
2022-08-11T06:19:00.217Z,20.08
2022-08-11T06:23:57.078Z,20.52
2022-08-11T06:28:59.297Z,20.94
2022-08-11T06:34:11.387Z,21.25
2022-08-11T06:39:25.843Z,21.54
2022-08-11T06:44:55.300Z,21.82
2022-08-11T06:50:10.324Z,22.18
2022-08-11T06:55:56.112Z,22.74
2022-08-11T07:00:33.464Z,23.13
2022-08-11T07:05:53.869Z,23.54
2022-08-11T07:11:50.804Z,23.96
2022-08-11T07:16:49.351Z,24.19
2022-08-11T07:22:05.998Z,24.23
2022-08-11T07:27:24.709Z,24.64
2022-08-11T07:32:33.110Z,24.94
2022-08-11T07:37:33.367Z,24.64
2022-08-11T07:42:37.328Z,24.80
2022-08-11T07:47:55.075Z,25.16
2022-08-11T07:52:54.011Z,25.05
2022-08-11T07:58:15.348Z,24.85
2022-08-11T08:03:32.763Z,24.79
2022-08-11T08:08:48.429Z,25.59
2022-08-11T08:14:04.396Z,25.02
2022-08-11T08:19:00.933Z,25.22
2022-08-11T08:23:58.628Z,25.70
2022-08-11T08:29:16.503Z,25.70
2022-08-11T08:34:13.592Z,26.41
2022-08-11T08:39:13.054Z,26.56
2022-08-11T08:44:37.203Z,26.48
2022-08-11T08:49:40.385Z,26.96
2022-08-11T08:54:39.639Z,26.48
2022-08-11T08:59:48.766Z,26.18
2022-08-11T09:04:47.413Z,26.43
2022-08-11T09:09:53.562Z,26.55
2022-08-11T09:15:06.322Z,27.07
2022-08-11T09:20:08.330Z,27.06
2022-08-11T09:25:25.757Z,27.37
2022-08-11T09:30:27.614Z,28.31
2022-08-11T09:35:27.675Z,28.75
2022-08-11T09:40:31.496Z,29.03
2022-08-11T09:45:29.373Z,29.05
2022-08-11T09:50:39.316Z,28.70
2022-08-11T09:55:38.215Z,28.14
2022-08-11T10:00:40.336Z,28.60
2022-08-11T10:05:56.935Z,28.76
2022-08-11T10:10:55.416Z,28.84
2022-08-11T10:16:14.592Z,28.48
2022-08-11T10:21:25.221Z,28.80
2022-08-11T10:26:42.878Z,28.86
2022-08-11T10:32:02.910Z,29.08
2022-08-11T10:37:04.144Z,28.99
2022-08-11T10:42:30.210Z,28.46
2022-08-11T10:47:36.683Z,29.39
2022-08-11T10:52:51.824Z,29.47
2022-08-11T10:58:07.244Z,29.25
2022-08-11T11:03:23.553Z,29.69
2022-08-11T11:14:09.988Z,29.75
2022-08-11T11:19:10.039Z,29.78
2022-08-11T11:24:37.407Z,29.94
2022-08-11T11:29:54.577Z,29.55
2022-08-11T11:35:10.956Z,29.84
2022-08-11T11:40:13.232Z,29.99
2022-08-11T11:45:14.960Z,30.27
2022-08-11T11:50:35.633Z,29.81
2022-08-11T11:55:33.418Z,29.96
2022-08-11T12:00:49.310Z,30.00
2022-08-11T12:05:45.987Z,29.90
2022-08-11T12:11:13.186Z,29.87
2022-08-11T12:16:34.409Z,30.42
2022-08-11T12:21:29.550Z,30.19
2022-08-11T12:26:44.957Z,29.53
2022-08-11T12:32:01.924Z,30.19
2022-08-11T12:37:05.624Z,30.51
2022-08-11T12:42:21.009Z,30.60
2022-08-11T12:47:20.029Z,30.46
2022-08-11T12:52:26.411Z,30.33
2022-08-11T12:58:10.540Z,29.73
2022-08-11T13:03:27.722Z,30.42
2022-08-11T13:08:26.577Z,30.80
2022-08-11T13:13:54.868Z,30.58
2022-08-11T13:18:42.870Z,30.21
2022-08-11T13:23:40.397Z,30.66
2022-08-11T13:28:56.656Z,30.74
2022-08-11T13:33:54.075Z,30.93
2022-08-11T13:38:51.198Z,31.09
2022-08-11T13:43:47.659Z,31.13
2022-08-11T13:48:44.703Z,31.22
2022-08-11T13:53:43.614Z,30.92
2022-08-11T13:58:41.133Z,30.35
2022-08-11T14:04:30.018Z,30.57
2022-08-11T14:08:59.281Z,31.03
2022-08-11T14:13:58.446Z,30.73
2022-08-11T14:19:00.157Z,30.75
2022-08-11T14:23:59.347Z,30.92
2022-08-11T14:29:02.784Z,30.62
2022-08-11T14:34:02.915Z,31.05
2022-08-11T14:39:03.229Z,31.14
2022-08-11T14:44:18.513Z,31.57
2022-08-11T14:49:15.411Z,31.96
2022-08-11T14:54:31.398Z,31.42
2022-08-11T14:59:27.841Z,31.38
2022-08-11T15:04:35.759Z,30.69
2022-08-11T15:09:36.233Z,31.23
2022-08-11T15:14:55.820Z,31.41
2022-08-11T15:20:12.093Z,31.57
2022-08-11T15:25:09.370Z,31.72
2022-08-11T15:30:33.381Z,31.72
2022-08-11T15:35:50.925Z,31.91
2022-08-11T15:41:07.624Z,31.33
2022-08-11T15:46:18.015Z,31.26
2022-08-11T15:51:25.150Z,31.27
2022-08-11T15:56:25.763Z,31.44
2022-08-11T16:01:42.936Z,30.94
2022-08-11T16:06:57.528Z,30.47
2022-08-11T16:11:56.757Z,30.76
2022-08-11T16:16:54.172Z,31.22
2022-08-11T16:21:53.018Z,31.57
2022-08-11T16:27:10.440Z,31.98
2022-08-11T16:32:16.939Z,31.88
2022-08-11T16:37:33.985Z,32.00
2022-08-11T16:43:02.422Z,32.19
2022-08-11T16:48:33.070Z,31.38
2022-08-11T16:53:50.144Z,31.87
2022-08-11T16:59:00.930Z,34.92
2022-08-11T17:04:31.216Z,38.86
2022-08-11T17:09:50.967Z,40.28
2022-08-11T17:14:55.076Z,41.43
2022-08-11T17:20:40.683Z,41.18
2022-08-11T17:25:12.998Z,40.36
2022-08-11T17:30:10.980Z,41.20
2022-08-11T17:35:30.840Z,39.25
2022-08-11T17:40:28.312Z,39.46
2022-08-11T17:45:44.073Z,38.65
2022-08-11T17:50:41.317Z,38.76
2022-08-11T17:55:58.495Z,38.31
2022-08-11T18:00:56.063Z,39.04
2022-08-11T18:05:52.571Z,37.97
2022-08-11T18:11:08.720Z,36.71
2022-08-11T18:16:24.040Z,36.10
2022-08-11T18:21:39.693Z,35.32
2022-08-11T18:26:54.925Z,34.29
2022-08-11T18:32:12.437Z,31.51
2022-08-11T18:37:41.890Z,29.48
2022-08-11T18:43:00.609Z,28.11
2022-08-11T18:48:21.063Z,27.19
2022-08-11T18:53:37.354Z,26.51
2022-08-11T18:58:55.537Z,26.00
2022-08-11T19:04:17.473Z,25.65
2022-08-11T19:09:36.881Z,25.17
2022-08-11T19:14:54.048Z,24.87
2022-08-11T19:20:10.155Z,24.44
2022-08-11T19:25:27.296Z,24.08
2022-08-11T19:30:43.153Z,23.73
2022-08-11T19:36:00.388Z,23.50
2022-08-11T19:41:51.833Z,23.24
2022-08-11T19:46:56.622Z,23.01
2022-08-11T19:52:12.601Z,22.84
2022-08-11T19:57:28.947Z,22.66
2022-08-11T20:02:44.274Z,22.47
2022-08-11T20:08:01.323Z,22.31
2022-08-11T20:13:21.238Z,22.14
2022-08-11T20:18:37.712Z,21.99
2022-08-11T20:23:53.028Z,21.90
2022-08-11T20:29:10.333Z,21.85
2022-08-11T20:34:27.446Z,21.76
2022-08-11T20:39:44.006Z,21.63
2022-08-11T20:45:00.933Z,21.48
2022-08-11T20:50:20.371Z,21.35
2022-08-11T20:55:46.272Z,21.23
2022-08-11T21:01:10.523Z,21.11
2022-08-11T21:06:36.585Z,21.05
2022-08-11T21:11:54.603Z,20.92
2022-08-11T21:17:27.106Z,20.84
2022-08-11T21:22:59.366Z,20.69
2022-08-11T21:28:25.236Z,20.60
2022-08-11T21:33:40.383Z,20.55
2022-08-11T21:38:56.265Z,20.53
2022-08-11T21:44:12.835Z,20.46
2022-08-11T21:49:30.025Z,20.39
2022-08-11T21:54:46.312Z,20.32
2022-08-11T22:00:11.385Z,20.28
2022-08-11T22:05:28.496Z,20.23
2022-08-11T22:10:43.548Z,20.24
2022-08-11T22:15:58.798Z,20.19
2022-08-11T22:21:14.229Z,20.12
2022-08-11T22:26:53.259Z,19.98
2022-08-11T22:32:09.369Z,19.84
2022-08-11T22:37:27.523Z,19.69
2022-08-11T22:42:43.138Z,19.65
2022-08-11T22:48:02.574Z,19.63
2022-08-11T22:53:19.899Z,19.61
2022-08-11T22:58:36.651Z,19.53
2022-08-11T23:03:52.459Z,19.51
2022-08-11T23:09:08.117Z,19.47
2022-08-11T23:14:23.628Z,19.38
2022-08-11T23:20:10.469Z,19.28
2022-08-11T23:25:17.744Z,19.15
2022-08-11T23:30:33.292Z,19.17
2022-08-11T23:35:55.526Z,19.22
2022-08-11T23:41:13.661Z,19.14
2022-08-11T23:46:29.180Z,19.19
2022-08-11T23:51:45.768Z,19.14
2022-08-11T23:57:01.294Z,19.06
